Time;durP1;ratioP1;P1;durP2;ratioP2;P2;SDS_P1;SDS_P2;PMS_P1;PMS_P2;Temp;Humidity;BMP_temperature;BMP_pressure;BME280_temperature;BME280_humidity;BME280_pressure;Samples;Min_cycle;Max_cycle;Signal;HPM_P1;HPM_P2
2022/04/13 00:02:01;;;;;;;6.40;3.97;;;;;;;18.35;44.67;97120.13;5111105;28;20430;-74
2022/04/13 00:04:27;;;;;;;5.83;4.47;;;;;;;18.30;44.48;97114.59;5116089;28;20257;-75
2022/04/13 00:06:52;;;;;;;8.73;4.63;;;;;;;18.13;44.82;97122.13;5110302;28;20181;-74
2022/04/13 00:09:18;;;;;;;7.90;4.90;;;;;;;18.17;44.93;97118.88;5110310;28;20228;-75
2022/04/13 00:11:43;;;;;;;6.43;3.47;;;;;;;18.24;44.52;97118.88;5114108;28;20709;-75
2022/04/13 00:14:09;;;;;;;6.23;4.20;;;;;;;18.24;44.62;97114.41;5080819;28;20181;-74
2022/04/13 00:16:35;;;;;;;7.43;4.73;;;;;;;18.29;44.62;97113.78;5095541;28;20268;-75
2022/04/13 00:19:00;;;;;;;6.67;4.77;;;;;;;18.14;44.76;97115.81;5114723;28;20193;-75
2022/04/13 00:21:26;;;;;;;6.27;4.40;;;;;;;18.15;45.00;97118.25;5114570;28;20209;-75
2022/04/13 00:23:51;;;;;;;6.90;4.07;;;;;;;18.05;45.11;97117.84;5130259;27;20208;-76
2022/04/13 00:26:17;;;;;;;6.80;4.37;;;;;;;18.00;44.95;97121.09;5122054;27;20195;-75
2022/04/13 00:28:42;;;;;;;6.07;4.07;;;;;;;18.06;44.58;97122.13;5114233;28;20173;-74
2022/04/13 00:31:08;;;;;;;7.17;3.77;;;;;;;18.08;44.63;97125.41;5114331;28;20209;-75
2022/04/13 00:33:33;;;;;;;6.30;3.93;;;;;;;17.99;44.78;97114.16;5138898;27;20192;-74
2022/04/13 00:35:59;;;;;;;7.07;4.00;;;;;;;18.07;45.09;97118.47;5114921;27;20624;-74
2022/04/13 00:38:25;;;;;;;6.77;3.90;;;;;;;18.06;44.88;97122.97;5115711;27;20556;-73
2022/04/13 00:40:51;;;;;;;5.47;4.77;;;;;;;18.07;44.86;97115.81;5120941;27;20443;-74
2022/04/13 00:43:16;;;;;;;6.43;4.60;;;;;;;18.08;45.25;97122.75;5111939;28;20187;-74
2022/04/13 00:45:45;;;;;;;10.83;4.70;;;;;;;17.92;45.35;97119.41;5114265;28;20181;-73
2022/04/13 00:48:35;;;;;;;7.40;4.30;;;;;;;17.77;45.15;97122.25;5114202;28;20181;-74
2022/04/13 00:51:00;;;;;;;7.53;4.10;;;;;;;17.87;45.07;97118.41;5121705;27;20813;-73
2022/04/13 00:53:26;;;;;;;6.17;4.30;;;;;;;17.86;45.33;97112.28;5114637;27;20435;-73
2022/04/13 00:55:57;;;;;;;8.07;3.90;;;;;;;17.83;44.86;97119.84;5113730;28;20205;-72
2022/04/13 00:58:24;;;;;;;9.20;3.53;;;;;;;17.74;44.79;97120.00;5077951;28;20920;-72
2022/04/13 01:00:50;;;;;;;7.07;3.93;;;;;;;17.74;44.90;97127.16;5099087;28;20954;-75
2022/04/13 01:03:18;;;;;;;12.93;3.90;;;;;;;17.74;44.77;97129.78;5092235;28;20427;-73
2022/04/13 01:05:45;;;;;;;5.70;3.40;;;;;;;17.79;44.74;97122.88;5119529;27;20525;-73
2022/04/13 01:08:11;;;;;;;5.60;3.53;;;;;;;17.79;44.50;97124.69;5113749;28;20430;-73
2022/04/13 01:10:38;;;;;;;4.47;3.20;;;;;;;17.72;44.53;97122.03;5112988;28;20459;-73
2022/04/13 01:13:04;;;;;;;7.27;3.90;;;;;;;17.76;44.64;97130.41;5097665;28;20431;-73
2022/04/13 01:15:29;;;;;;;8.40;3.50;;;;;;;17.77;44.39;97137.31;5111852;28;20434;-73
2022/04/13 01:17:55;;;;;;;6.13;4.07;;;;;;;17.80;44.19;97140.41;5098393;28;20193;-73
2022/04/13 01:20:23;;;;;;;7.97;3.80;;;;;;;17.81;43.68;97135.91;5111045;28;20204;-74
2022/04/13 01:22:49;;;;;;;7.80;4.23;;;;;;;17.84;43.57;97140.81;5112531;28;20260;-73
2022/04/13 01:25:14;;;;;;;5.43;4.27;;;;;;;17.88;43.55;97141.22;5103164;28;20518;-74
2022/04/13 01:27:39;;;;;;;12.60;3.83;;;;;;;17.87;43.28;97132.47;5094947;28;20244;-73
2022/04/13 01:30:07;;;;;;;5.23;3.97;;;;;;;17.79;43.40;97136.13;5111468;28;20220;-74
2022/04/13 01:32:33;;;;;;;5.40;3.93;;;;;;;17.75;43.53;97137.53;5095151;28;20186;-74
2022/04/13 01:34:58;;;;;;;5.60;4.30;;;;;;;17.79;43.43;97136.13;5099224;28;20792;-74
2022/04/13 01:37:24;;;;;;;6.67;4.20;;;;;;;17.74;43.27;97140.41;5094700;28;20197;-72
2022/04/13 01:39:49;;;;;;;4.23;3.53;;;;;;;17.69;44.11;97132.22;5121308;27;20264;-75
2022/04/13 01:42:15;;;;;;;7.70;4.63;;;;;;;17.64;44.20;97135.47;5112098;28;20302;-75
2022/04/13 01:44:41;;;;;;;6.57;3.93;;;;;;;17.68;43.64;97149.13;5091567;28;20193;-74
2022/04/13 01:47:07;;;;;;;5.97;4.30;;;;;;;17.57;44.09;97143.41;5091355;28;20177;-76
2022/04/13 01:49:33;;;;;;;6.80;4.20;;;;;;;17.56;44.74;97148.91;5110979;28;20451;-75
2022/04/13 01:51:58;;;;;;;8.70;4.63;;;;;;;17.59;44.23;97151.13;5113086;28;20834;-73
2022/04/13 01:54:24;;;;;;;5.50;3.80;;;;;;;17.42;44.58;97148.00;5112203;28;20185;-74
2022/04/13 01:56:49;;;;;;;5.80;4.37;;;;;;;17.32;44.64;97143.91;5112934;28;20221;-73
2022/04/13 01:59:14;;;;;;;4.40;4.00;;;;;;;17.31;45.09;97157.34;5094828;28;20189;-74
2022/04/13 02:01:43;;;;;;;4.00;3.60;;;;;;;17.37;44.88;97151.25;5112663;28;20236;-75
2022/04/13 02:04:23;;;;;;;6.20;3.90;;;;;;;17.35;45.02;97163.88;5117281;27;20180;-75
2022/04/13 02:06:49;;;;;;;6.87;3.80;;;;;;;17.39;44.66;97156.38;5106919;28;20497;-75
2022/04/13 02:09:16;;;;;;;6.33;3.50;;;;;;;17.35;44.59;97159.41;5101625;28;20503;-75
2022/04/13 02:11:42;;;;;;;5.83;3.70;;;;;;;17.31;44.60;97167.94;5099118;28;20448;-75
2022/04/13 02:14:07;;;;;;;6.50;4.30;;;;;;;17.10;45.07;97164.34;5108111;28;20435;-74
2022/04/13 02:16:34;;;;;;;6.60;4.20;;;;;;;16.94;45.61;97164.66;5128494;27;20203;-75
2022/04/13 02:18:59;;;;;;;4.40;4.00;;;;;;;16.94;45.60;97159.38;5112446;27;20606;-75
2022/04/13 02:21:25;;;;;;;5.83;4.10;;;;;;;17.03;45.72;97164.31;5112078;28;20482;-75
2022/04/13 02:23:50;;;;;;;3.50;3.20;;;;;;;17.06;45.63;97168.44;5112137;28;20267;-75
2022/04/13 02:26:17;;;;;;;8.70;3.83;;;;;;;16.98;45.83;97169.41;5120254;27;20264;-75
2022/04/13 02:28:42;;;;;;;11.43;4.13;;;;;;;16.98;45.92;97168.56;5127947;27;20263;-76
2022/04/13 02:31:08;;;;;;;7.17;3.97;;;;;;;16.91;45.89;97173.78;5095730;28;20555;-75
2022/04/13 02:33:34;;;;;;;4.00;3.60;;;;;;;16.98;44.90;97168.56;5110830;28;20192;-75
2022/04/13 02:35:59;;;;;;;4.83;3.90;;;;;;;17.01;45.41;97163.69;5119156;27;20215;-75
2022/04/13 02:38:25;;;;;;;5.83;3.87;;;;;;;17.01;45.45;97163.69;5132411;27;20200;-75
2022/04/13 02:40:51;;;;;;;6.23;3.60;;;;;;;16.87;45.61;97167.25;5104785;27;20569;-76
2022/04/13 02:43:17;;;;;;;6.33;3.93;;;;;;;16.84;45.68;97176.38;5090953;28;20559;-73
2022/04/13 02:45:42;;;;;;;5.07;4.00;;;;;;;16.58;46.17;97180.47;5098796;28;20519;-73
2022/04/13 02:48:08;;;;;;;5.27;3.30;;;;;;;16.39;46.91;97179.28;5107414;28;20185;-74
2022/04/13 02:50:34;;;;;;;7.53;4.23;;;;;;;16.35;47.57;97187.78;5093353;28;20581;-74
2022/04/13 02:52:59;;;;;;;6.57;5.00;;;;;;;16.49;46.77;97191.38;5112259;28;20266;-74
2022/04/13 02:55:25;;;;;;;7.70;4.70;;;;;;;16.56;46.53;97187.78;5112037;28;20513;-74
2022/04/13 02:57:51;;;;;;;6.77;4.43;;;;;;;16.59;46.15;97187.38;5111708;28;20191;-74
2022/04/13 03:00:17;;;;;;;6.10;4.77;;;;;;;16.53;46.51;97179.41;5112482;27;20254;-76
2022/04/13 03:02:44;;;;;;;6.10;4.00;;;;;;;16.54;46.64;97186.31;5076830;28;20180;-75
2022/04/13 03:05:10;;;;;;;5.90;4.30;;;;;;;16.48;46.79;97187.09;5124652;27;20185;-75
2022/04/13 03:07:36;;;;;;;7.03;4.13;;;;;;;16.32;47.12;97183.72;5120841;27;20430;-74
2022/04/13 03:10:03;;;;;;;7.83;4.10;;;;;;;16.29;47.17;97186.72;5095897;28;20463;-75
2022/04/13 03:12:28;;;;;;;8.13;4.33;;;;;;;16.34;46.83;97184.34;5104605;28;20804;-75
2022/04/13 03:14:54;;;;;;;4.53;4.03;;;;;;;16.39;46.86;97186.41;5111677;28;20526;-75
2022/04/13 03:17:19;;;;;;;4.40;3.90;;;;;;;16.40;46.71;97188.06;5127298;27;20199;-74
2022/04/13 03:19:45;;;;;;;9.03;4.47;;;;;;;16.42;46.84;97191.34;5097728;28;20257;-74
2022/04/13 03:22:10;;;;;;;8.00;3.90;;;;;;;16.38;46.76;97185.56;5107909;28;20220;-73
2022/04/13 03:24:36;;;;;;;8.40;4.30;;;;;;;16.34;46.85;97189.63;5095880;28;20907;-73
2022/04/13 03:27:02;;;;;;;9.93;4.13;;;;;;;16.32;47.24;97186.34;5117318;27;20248;-74
2022/04/13 03:29:27;;;;;;;7.13;3.60;;;;;;;16.28;47.02;97188.56;5111441;28;20223;-72
2022/04/13 03:31:53;;;;;;;6.23;3.90;;;;;;;16.11;47.53;97182.72;5077133;28;20235;-75
2022/04/13 03:34:21;;;;;;;6.23;3.73;;;;;;;16.22;47.43;97186.66;5131223;27;20200;-75
2022/04/13 03:36:48;;;;;;;6.23;3.87;;;;;;;16.26;47.45;97187.09;5097892;28;20181;-73
2022/04/13 03:39:14;;;;;;;7.03;4.50;;;;;;;16.31;47.46;97187.34;5116245;28;20438;-75
2022/04/13 03:41:39;;;;;;;6.50;4.10;;;;;;;16.24;47.47;97183.84;5111725;27;20511;-74
2022/04/13 03:44:05;;;;;;;5.50;4.23;;;;;;;16.27;47.23;97188.72;5111421;28;20434;-75
2022/04/13 03:46:31;;;;;;;10.20;4.23;;;;;;;16.32;46.86;97186.34;5115501;28;20231;-75
2022/04/13 03:48:57;;;;;;;9.10;4.13;;;;;;;16.33;47.01;97187.16;5101040;27;20185;-74
2022/04/13 03:51:23;;;;;;;7.03;4.50;;;;;;;16.11;47.50;97185.34;5124907;27;20983;-74
2022/04/13 03:53:48;;;;;;;6.97;4.00;;;;;;;16.10;47.51;97189.00;5107553;27;20184;-75
2022/04/13 03:56:14;;;;;;;11.63;4.03;;;;;;;16.11;47.54;97185.34;5105668;27;20216;-74
2022/04/13 03:58:42;;;;;;;7.67;3.93;;;;;;;16.08;47.57;97187.53;5104214;27;20223;-76
2022/04/13 04:01:08;;;;;;;8.80;4.47;;;;;;;16.09;47.92;97192.66;5114893;28;20208;-75
2022/04/13 04:03:34;;;;;;;4.90;4.10;;;;;;;16.15;47.51;97184.97;5117005;27;20427;-75
2022/04/13 04:06:01;;;;;;;6.53;4.00;;;;;;;16.07;47.75;97185.88;5126858;27;20805;-74
2022/04/13 04:08:27;;;;;;;8.00;4.00;;;;;;;16.09;47.61;97186.53;5115319;28;20415;-73
2022/04/13 04:10:53;;;;;;;4.07;3.67;;;;;;;16.03;47.70;97190.75;5113638;28;20481;-73
2022/04/13 04:13:19;;;;;;;5.23;4.53;;;;;;;16.09;47.77;97195.28;5114817;28;20434;-74
2022/04/13 04:15:45;;;;;;;6.57;4.20;;;;;;;16.01;47.82;97198.03;5114383;28;20633;-73
2022/04/13 04:18:10;;;;;;;6.87;3.60;;;;;;;16.05;47.90;97195.84;5115448;28;20276;-74
2022/04/13 04:20:36;;;;;;;5.33;4.20;;;;;;;16.03;47.52;97198.66;5114026;27;20288;-73
2022/04/13 04:23:01;;;;;;;5.70;4.23;;;;;;;15.96;47.83;97195.16;5115361;28;20181;-74
2022/04/13 04:25:27;;;;;;;6.80;4.30;;;;;;;16.00;47.90;97204.34;5108721;28;20271;-75
2022/04/13 04:27:52;;;;;;;6.60;4.37;;;;;;;16.01;47.78;97194.59;5113910;27;20652;-75
2022/04/13 04:30:18;;;;;;;5.30;4.10;;;;;;;15.96;47.77;97197.78;5147449;27;20212;-74
2022/04/13 04:32:43;;;;;;;7.20;4.13;;;;;;;15.93;47.99;97198.16;5114796;28;20189;-74
2022/04/13 04:35:09;;;;;;;6.83;4.60;;;;;;;15.80;48.20;97204.91;5114843;28;20683;-74
2022/04/13 04:37:35;;;;;;;6.10;4.10;;;;;;;15.86;48.15;97202.56;5114104;28;20193;-73
2022/04/13 04:40:00;;;;;;;6.70;4.23;;;;;;;15.86;48.17;97203.38;5121910;27;21286;-74
2022/04/13 04:42:27;;;;;;;7.03;4.50;;;;;;;15.80;48.36;97194.34;5114195;28;20692;-74
2022/04/13 04:44:59;;;;;;;10.57;4.33;;;;;;;15.80;48.25;97204.91;5113721;28;21447;-73
2022/04/13 04:47:25;;;;;;;7.43;4.70;;;;;;;15.82;48.14;97202.06;5123097;27;20426;-74
2022/04/13 04:49:50;;;;;;;6.70;4.60;;;;;;;15.79;48.42;97197.97;5113350;27;20463;-74
2022/04/13 04:52:16;;;;;;;5.70;4.00;;;;;;;15.81;48.13;97206.53;5095799;28;20992;-74
2022/04/13 04:54:41;;;;;;;7.07;4.70;;;;;;;15.82;48.48;97200.25;5111548;27;20184;-74
2022/04/13 04:57:08;;;;;;;14.80;4.73;;;;;;;15.82;48.27;97202.91;5083391;28;20680;-75
2022/04/13 04:59:34;;;;;;;10.17;4.93;;;;;;;15.82;48.45;97200.25;5113333;28;20181;-74
2022/04/13 05:02:00;;;;;;;18.10;4.63;;;;;;;15.84;48.39;97199.25;5114202;27;20450;-72
2022/04/13 05:04:25;;;;;;;19.63;5.60;;;;;;;15.85;48.70;97203.56;5095685;27;20957;-73
2022/04/13 05:06:51;;;;;;;8.03;5.07;;;;;;;15.77;48.36;97205.25;5113702;28;20181;-72
2022/04/13 05:09:18;;;;;;;9.27;5.47;;;;;;;15.59;48.95;97213.59;5119325;28;20695;-72
2022/04/13 05:11:45;;;;;;;23.57;4.87;;;;;;;15.66;49.33;97217.16;5082967;28;20201;-72
2022/04/13 05:14:10;;;;;;;17.10;5.10;;;;;;;15.79;48.79;97205.09;5108480;28;20500;-72
2022/04/13 05:16:36;;;;;;;7.70;5.20;;;;;;;15.71;49.09;97213.94;5113072;28;20443;-71
2022/04/13 05:19:01;;;;;;;10.37;5.33;;;;;;;15.57;49.09;97220.88;5112138;28;20173;-72
2022/04/13 05:21:27;;;;;;;9.00;5.70;;;;;;;15.54;49.46;97220.41;5109686;28;20216;-72
2022/04/13 05:23:52;;;;;;;8.57;5.00;;;;;;;15.65;49.14;97217.31;5117443;27;20177;-71
2022/04/13 05:26:18;;;;;;;11.10;4.63;;;;;;;15.67;49.33;97210.03;5112928;27;20200;-72
2022/04/13 05:28:45;;;;;;;12.00;5.60;;;;;;;15.59;49.72;97228.63;5124129;27;20188;-71
2022/04/13 05:31:11;;;;;;;15.30;5.33;;;;;;;15.65;49.53;97228.72;5111380;28;20201;-67
2022/04/13 05:33:37;;;;;;;8.77;5.37;;;;;;;15.80;49.41;97218.09;5108102;28;20438;-70
2022/04/13 05:36:03;;;;;;;8.80;5.07;;;;;;;15.80;49.08;97220.75;5104390;28;20599;-68
2022/04/13 05:38:29;;;;;;;12.63;5.23;;;;;;;15.68;49.61;97232.00;5120050;27;20184;-70
2022/04/13 05:40:54;;;;;;;6.40;5.53;;;;;;;15.69;50.09;97234.44;5114300;28;20826;-67
2022/04/13 05:43:20;;;;;;;7.00;5.07;;;;;;;15.81;49.39;97232.97;5062884;28;20232;-70
2022/04/13 05:45:46;;;;;;;10.10;5.43;;;;;;;15.91;49.28;97237.16;5110596;28;20188;-70
2022/04/13 05:48:11;;;;;;;11.10;5.17;;;;;;;16.02;49.48;97238.50;5113558;28;20192;-69
2022/04/13 05:50:37;;;;;;;17.13;5.47;;;;;;;16.18;49.31;97242.75;5112157;28;20209;-70
2022/04/13 05:53:02;;;;;;;6.53;4.77;;;;;;;16.32;48.69;97244.53;5112218;28;20641;-70
2022/04/13 05:55:28;;;;;;;19.97;5.47;;;;;;;16.45;48.54;97246.47;5109421;27;20686;-69
2022/04/13 05:57:54;;;;;;;13.20;5.50;;;;;;;16.60;48.80;97251.72;5086177;28;20196;-69
2022/04/13 06:00:19;;;;;;;14.50;6.00;;;;;;;16.63;48.79;97250.50;5108926;28;20201;-69
2022/04/13 06:02:45;;;;;;;17.73;5.53;;;;;;;16.81;49.07;97252.69;5112228;28;20213;-69
2022/04/13 06:05:11;;;;;;;13.23;5.30;;;;;;;16.93;48.89;97258.31;5123043;27;20253;-69
2022/04/13 06:07:36;;;;;;;22.33;5.00;;;;;;;17.03;48.79;97256.16;5094358;27;20193;-70
2022/04/13 06:10:04;;;;;;;10.33;5.53;;;;;;;17.09;47.88;97250.09;5062509;28;20478;-67
2022/04/13 06:12:29;;;;;;;12.73;5.40;;;;;;;17.15;47.10;97256.44;5075698;28;20221;-70
2022/04/13 06:15:03;;;;;;;10.93;6.63;;;;;;;17.22;46.75;97267.09;5113189;28;20919;-70
2022/04/13 06:17:29;;;;;;;8.90;5.70;;;;;;;17.21;46.69;97263.63;5115453;28;20601;-70
2022/04/13 06:19:54;;;;;;;16.10;5.80;;;;;;;17.21;46.35;97258.34;5119470;27;20454;-70
2022/04/13 06:22:20;;;;;;;6.90;5.33;;;;;;;17.35;46.18;97260.06;5098037;27;20266;-70
2022/04/13 06:24:51;;;;;;;6.83;5.53;;;;;;;17.42;45.93;97256.63;5116256;27;20180;-69
2022/04/13 06:27:16;;;;;;;9.90;5.87;;;;;;;17.58;45.34;97253.66;5115140;27;20185;-71
2022/04/13 06:29:42;;;;;;;6.57;5.20;;;;;;;17.74;45.83;97257.00;5107368;27;20486;-70
2022/04/13 06:32:08;;;;;;;18.60;5.43;;;;;;;17.93;46.07;97269.50;5092269;27;20189;-70
2022/04/13 06:34:34;;;;;;;8.00;5.40;;;;;;;18.11;46.26;97265.53;5111851;28;20189;-70
2022/04/13 06:36:59;;;;;;;11.10;5.77;;;;;;;18.22;46.13;97262.31;5113725;27;20732;-70
2022/04/13 06:39:25;;;;;;;13.07;5.53;;;;;;;18.37;45.62;97271.94;5120629;27;20450;-72
2022/04/13 06:41:50;;;;;;;9.03;5.93;;;;;;;18.47;45.00;97268.88;5111192;27;20220;-71
2022/04/13 06:44:15;;;;;;;11.60;6.07;;;;;;;18.64;44.39;97270.16;5111735;28;20226;-73
2022/04/13 06:46:41;;;;;;;16.80;6.10;;;;;;;18.78;44.62;97278.94;5112258;28;20191;-70
2022/04/13 06:49:06;;;;;;;12.20;5.30;;;;;;;18.87;43.74;97272.41;5105981;28;20200;-70
2022/04/13 06:51:33;;;;;;;11.03;6.03;;;;;;;18.94;43.83;97271.63;5110868;27;20292;-71
2022/04/13 06:53:59;;;;;;;24.60;6.17;;;;;;;19.04;43.39;97277.34;5111669;28;20185;-71
2022/04/13 06:56:24;;;;;;;18.50;5.87;;;;;;;19.13;43.53;97275.28;5111788;28;20434;-70
2022/04/13 06:58:50;;;;;;;15.60;5.77;;;;;;;19.19;43.15;97274.50;5111360;28;20427;-72
2022/04/13 07:01:15;;;;;;;9.07;5.60;;;;;;;19.29;43.22;97274.03;5093849;28;20205;-70
2022/04/13 07:03:41;;;;;;;13.23;6.03;;;;;;;19.23;43.63;97277.53;5123001;27;20181;-70
2022/04/13 07:06:06;;;;;;;15.90;6.23;;;;;;;19.38;43.28;97285.28;5101717;27;20190;-71
2022/04/13 07:08:32;;;;;;;14.50;5.50;;;;;;;19.55;43.14;97278.50;5110333;27;20189;-72
2022/04/13 07:10:58;;;;;;;20.80;5.00;;;;;;;19.76;43.17;97285.41;5096159;28;20221;-71
2022/04/13 07:13:23;;;;;;;17.53;5.53;;;;;;;19.93;42.89;97272.50;5109047;28;20234;-70
2022/04/13 07:15:51;;;;;;;17.90;5.47;;;;;;;20.08;42.52;97282.06;5097661;28;20697;-71
2022/04/13 07:18:17;;;;;;;17.97;5.47;;;;;;;20.25;42.55;97277.88;5110671;28;20196;-69
2022/04/13 07:20:42;;;;;;;9.20;5.60;;;;;;;20.34;41.82;97275.78;5110267;28;20442;-71
2022/04/13 07:23:08;;;;;;;11.87;5.60;;;;;;;20.52;41.92;97284.91;5111521;28;20185;-70
2022/04/13 07:25:34;;;;;;;28.43;5.00;;;;;;;20.69;41.84;97278.00;5118898;27;20938;-69
2022/04/13 07:27:59;;;;;;;8.73;5.20;;;;;;;20.81;41.40;97280.00;5111164;28;20708;-69
2022/04/13 07:30:25;;;;;;;18.33;5.03;;;;;;;20.99;41.43;97282.75;5110624;28;20224;-69
2022/04/13 07:33:01;;;;;;;9.90;5.13;;;;;;;21.11;40.87;97280.16;5101477;28;20199;-71
2022/04/13 07:35:28;;;;;;;14.73;5.67;;;;;;;21.35;40.63;97279.56;5126914;27;20180;-69
2022/04/13 07:37:54;;;;;;;10.37;4.30;;;;;;;21.54;40.46;97277.75;5127201;27;20446;-68
2022/04/13 07:40:19;;;;;;;7.27;4.23;;;;;;;21.72;39.82;97277.78;5119223;27;20508;-69
2022/04/13 07:42:45;;;;;;;10.77;4.60;;;;;;;21.87;39.61;97272.06;5126950;27;20216;-69
2022/04/13 07:45:10;;;;;;;14.37;4.40;;;;;;;22.01;38.63;97285.25;5111114;28;20185;-71
2022/04/13 07:47:36;;;;;;;11.40;4.90;;;;;;;22.15;38.47;97278.72;5111357;28;20189;-69
2022/04/13 07:50:03;;;;;;;12.10;4.80;;;;;;;22.33;37.25;97279.69;5108993;28;20315;-70
2022/04/13 07:52:33;;;;;;;15.77;4.00;;;;;;;22.49;36.32;97284.44;5082882;28;20439;-70
2022/04/13 07:54:59;;;;;;;9.33;4.47;;;;;;;22.70;36.46;97285.78;5110865;28;20430;-69
2022/04/13 07:57:24;;;;;;;16.13;3.93;;;;;;;22.61;34.64;97289.00;5111625;28;20431;-70
2022/04/13 07:59:50;;;;;;;13.87;3.57;;;;;;;22.79;34.68;97288.94;5097388;28;20642;-70
2022/04/13 08:02:20;;;;;;;8.03;2.80;;;;;;;23.00;32.37;97292.13;5106486;28;20187;-70
2022/04/13 08:04:46;;;;;;;4.27;2.90;;;;;;;23.22;32.51;97286.22;5103858;28;20197;-71
2022/04/13 08:07:12;;;;;;;3.07;2.10;;;;;;;23.39;30.46;97284.50;5087474;28;20488;-70
2022/04/13 08:09:37;;;;;;;11.80;2.53;;;;;;;23.50;31.07;97287.41;5113954;28;20462;-71
2022/04/13 08:12:04;;;;;;;12.23;3.33;;;;;;;23.69;31.05;97291.56;5096598;28;20212;-70
2022/04/13 08:14:29;;;;;;;13.73;3.13;;;;;;;23.96;31.33;97300.97;5114022;28;20249;-71
2022/04/13 08:16:55;;;;;;;7.53;2.40;;;;;;;24.13;30.90;97299.16;5114113;28;20430;-71
2022/04/13 08:19:20;;;;;;;9.20;2.90;;;;;;;24.18;29.99;97303.81;5103276;28;20201;-70
2022/04/13 08:21:46;;;;;;;6.30;2.53;;;;;;;24.43;30.09;97300.00;5114011;28;20193;-70
2022/04/13 08:24:11;;;;;;;9.00;2.73;;;;;;;24.59;29.76;97299.22;5094824;28;20192;-69
2022/04/13 08:26:37;;;;;;;3.40;2.47;;;;;;;24.74;29.35;97297.91;5111797;28;20184;-70
2022/04/13 08:29:03;;;;;;;4.77;3.00;;;;;;;24.86;28.93;97298.63;5112459;28;20200;-70
2022/04/13 08:31:28;;;;;;;8.67;2.73;;;;;;;24.89;28.20;97295.47;5096903;28;20201;-71
2022/04/13 08:33:53;;;;;;;8.40;2.97;;;;;;;24.90;28.56;97302.47;5116129;28;20219;-71
2022/04/13 08:36:19;;;;;;;13.30;3.83;;;;;;;24.94;28.77;97295.56;5116137;27;20193;-71
2022/04/13 08:38:44;;;;;;;10.33;3.20;;;;;;;25.06;28.62;97308.09;5120125;27;20176;-70
2022/04/13 08:41:14;;;;;;;8.90;2.60;;;;;;;25.15;28.58;97312.78;5121168;27;20240;-71
2022/04/13 08:43:48;;;;;;;5.00;2.73;;;;;;;25.28;28.23;97317.00;5094588;28;20189;-71
2022/04/13 08:46:27;;;;;;;7.30;3.00;;;;;;;25.13;28.03;97314.91;5077087;28;20441;-70
2022/04/13 08:48:55;;;;;;;16.17;2.93;;;;;;;25.25;28.05;97314.00;5083986;28;21117;-70
2022/04/13 08:51:23;;;;;;;7.10;2.47;;;;;;;25.18;27.21;97311.50;5113693;28;20971;-71
2022/04/13 08:53:50;;;;;;;4.77;2.73;;;;;;;25.10;27.27;97311.88;5132252;27;20431;-69
2022/04/13 08:56:19;;;;;;;4.23;2.90;;;;;;;25.40;27.44;97310.75;5106693;28;20515;-71
2022/04/13 08:59:01;;;;;;;8.73;2.60;;;;;;;25.52;27.39;97308.81;5117466;28;20454;-71
2022/04/13 09:01:40;;;;;;;7.70;3.30;;;;;;;25.71;27.64;97314.72;5118989;28;20807;-69
2022/04/13 09:04:07;;;;;;;7.50;2.80;;;;;;;25.52;26.85;97316.84;5099170;28;20486;-71
2022/04/13 09:06:33;;;;;;;12.00;3.13;;;;;;;25.53;26.98;97318.47;5077989;28;20912;-71
2022/04/13 09:09:03;;;;;;;8.57;2.80;;;;;;;25.75;27.26;97312.34;5083082;28;20990;-69
2022/04/13 09:11:29;;;;;;;15.37;3.40;;;;;;;25.70;25.89;97317.66;5094278;28;20443;-71
2022/04/13 09:13:54;;;;;;;5.10;2.60;;;;;;;25.61;26.48;97317.25;5082493;28;20442;-71
2022/04/13 09:16:20;;;;;;;5.67;2.67;;;;;;;25.65;26.38;97313.00;5093189;28;20213;-70
2022/04/13 09:18:46;;;;;;;6.37;3.10;;;;;;;25.88;26.14;97314.66;5117767;27;20185;-70
2022/04/13 09:21:14;;;;;;;3.67;2.30;;;;;;;26.10;26.53;97313.88;5116903;28;20197;-70
2022/04/13 09:23:40;;;;;;;5.73;2.57;;;;;;;26.26;26.47;97319.44;5098525;28;20426;-71
2022/04/13 09:26:07;;;;;;;10.33;2.40;;;;;;;26.48;26.10;97314.84;5117306;28;20427;-69
2022/04/13 09:28:33;;;;;;;22.60;3.07;;;;;;;26.65;25.71;97311.25;5098428;28;20942;-71
2022/04/13 09:30:58;;;;;;;4.83;2.40;;;;;;;26.75;25.75;97311.34;5100540;28;20757;-70
2022/04/13 09:33:25;;;;;;;5.03;2.23;;;;;;;26.93;25.63;97314.75;5106495;28;20677;-70
2022/04/13 09:35:53;;;;;;;14.33;2.87;;;;;;;27.09;25.53;97308.41;5115838;28;20184;-70
2022/04/13 09:38:19;;;;;;;9.57;2.33;;;;;;;27.13;24.71;97312.22;5089705;28;20479;-70
2022/04/13 09:40:45;;;;;;;6.43;2.47;;;;;;;27.17;25.55;97322.47;5125367;27;20431;-69
2022/04/13 09:43:10;;;;;;;10.20;3.17;;;;;;;27.05;25.33;97315.41;5117141;27;20469;-70
2022/04/13 09:45:43;;;;;;;10.90;2.93;;;;;;;27.13;24.67;97314.13;5116074;27;20613;-71
2022/04/13 09:48:29;;;;;;;12.00;2.80;;;;;;;27.13;24.80;97314.13;5116002;27;20189;-70
2022/04/13 09:50:59;;;;;;;8.93;3.13;;;;;;;27.35;25.68;97314.00;5116366;28;20474;-71
2022/04/13 09:53:24;;;;;;;11.10;3.13;;;;;;;27.51;24.48;97311.44;5116644;28;20490;-70
2022/04/13 09:55:52;;;;;;;12.53;3.00;;;;;;;27.69;24.74;97313.72;5117588;28;20430;-70
2022/04/13 09:58:18;;;;;;;5.90;2.80;;;;;;;27.83;25.56;97318.63;5116739;28;20192;-70
2022/04/13 10:00:47;;;;;;;10.57;3.17;;;;;;;27.97;24.69;97316.25;5116921;28;20434;-70
2022/04/13 10:03:28;;;;;;;8.87;3.07;;;;;;;28.01;24.44;97314.66;5114903;28;20434;-71
2022/04/13 10:05:55;;;;;;;11.33;3.27;;;;;;;28.12;24.27;97310.16;5110373;28;20433;-71
2022/04/13 10:08:22;;;;;;;9.60;3.77;;;;;;;28.18;24.42;97309.09;5105856;27;20432;-69
2022/04/13 10:10:53;;;;;;;7.30;3.60;;;;;;;28.30;25.19;97303.47;5115478;28;20458;-71
2022/04/13 10:13:38;;;;;;;6.70;2.90;;;;;;;28.46;24.37;97309.72;5117073;28;20431;-69
2022/04/13 10:16:07;;;;;;;5.30;3.00;;;;;;;28.49;23.48;97298.41;5131813;27;20431;-70
2022/04/13 10:18:58;;;;;;;5.83;2.63;;;;;;;28.42;23.60;97303.25;5096879;28;20464;-70
2022/04/13 10:21:40;;;;;;;4.00;2.50;;;;;;;28.34;24.07;97308.09;5113074;28;20458;-71
2022/04/13 10:24:09;;;;;;;7.40;2.80;;;;;;;28.51;23.75;97298.94;5098029;28;20428;-70
2022/04/13 10:26:42;;;;;;;8.70;2.70;;;;;;;28.56;22.88;97296.28;5096548;28;20488;-71
2022/04/13 10:29:17;;;;;;;12.10;2.60;;;;;;;28.58;22.59;97299.50;5114025;28;20422;-70
2022/04/13 10:32:04;;;;;;;4.53;2.20;;;;;;;28.72;22.73;97304.38;5106971;28;20446;-71
2022/04/13 10:34:31;;;;;;;5.30;2.20;;;;;;;28.91;23.77;97302.81;5114387;27;20500;-70
2022/04/13 10:36:57;;;;;;;4.80;2.57;;;;;;;29.09;22.42;97303.34;5106141;27;20535;-71
2022/04/13 10:39:23;;;;;;;7.53;2.13;;;;;;;29.16;22.15;97295.00;5113163;27;20422;-70
2022/04/13 10:41:48;;;;;;;4.00;2.20;;;;;;;29.28;21.42;97293.59;5117048;28;20442;-70
2022/04/13 10:44:20;;;;;;;10.83;2.87;;;;;;;29.44;21.74;97299.03;5098041;28;20549;-71
2022/04/13 10:46:48;;;;;;;3.20;2.17;;;;;;;29.57;21.69;97295.75;5115715;28;20177;-70
2022/04/13 10:49:17;;;;;;;3.47;2.00;;;;;;;29.66;21.38;97289.78;5114382;27;20896;-71
2022/04/13 10:51:44;;;;;;;11.43;2.20;;;;;;;29.67;20.49;97289.53;5094165;28;20446;-71
2022/04/13 10:54:11;;;;;;;11.53;2.33;;;;;;;29.61;20.93;97292.50;5094262;28;20435;-70
2022/04/13 10:56:40;;;;;;;8.20;1.90;;;;;;;29.75;20.82;97285.44;5098778;28;20434;-70
2022/04/13 10:59:30;;;;;;;7.40;2.43;;;;;;;29.51;20.85;97287.94;5097200;28;20912;-70
2022/04/13 11:02:06;;;;;;;5.10;2.00;;;;;;;29.36;20.53;97288.78;5107161;28;20458;-70
2022/04/13 11:04:35;;;;;;;3.50;2.00;;;;;;;28.97;21.20;97292.81;5113312;28;20426;-72
2022/04/13 11:07:02;;;;;;;5.50;2.47;;;;;;;28.88;21.73;97289.06;5113018;28;20438;-71
2022/04/13 11:09:39;;;;;;;6.20;2.07;;;;;;;29.07;21.61;97283.94;5114517;28;20974;-71
2022/04/13 11:12:05;;;;;;;5.63;2.40;;;;;;;29.32;21.89;97288.47;5115552;28;20961;-71
2022/04/13 11:14:31;;;;;;;14.90;2.37;;;;;;;29.62;21.69;97286.00;5130835;27;20486;-71
2022/04/13 11:17:05;;;;;;;8.33;2.57;;;;;;;29.67;21.44;97294.09;5099808;28;20431;-70
2022/04/13 11:19:31;;;;;;;6.90;2.73;;;;;;;29.79;21.13;97294.59;5114073;28;20185;-70
2022/04/13 11:21:57;;;;;;;9.53;2.70;;;;;;;29.83;21.70;97286.75;5118559;28;20457;-71
2022/04/13 11:24:46;;;;;;;6.97;2.37;;;;;;;29.19;21.38;97300.66;5111147;28;20185;-71
2022/04/13 11:27:12;;;;;;;7.93;2.60;;;;;;;28.97;22.32;97298.22;5128051;27;20185;-72
2022/04/13 11:29:42;;;;;;;7.87;2.57;;;;;;;29.32;22.64;97290.38;5113878;28;20485;-71
2022/04/13 11:32:15;;;;;;;4.20;2.40;;;;;;;29.58;22.14;97291.97;5089320;28;20204;-71